This is the latest recevied weather packets stored in our database for station/object IS0HYQ-12. If no packets are shown the sender has not sent any weather packets the latest 10 day(s).
| Time | Temp. | Humidity | Pressure | Rain* | Wind** | Luminosity | Snow |
|---|---|---|---|---|---|---|---|
| 1777313256 | 22.78° C | 97% | 1015.9 hPa | - | - | - | - |
| 1777312356 | 25° C | 73% | 1015.8 hPa | - | - | - | - |
| 1777311456 | 26.67° C | 61% | 1015.8 hPa | - | - | - | - |
| 1777310556 | 26.11° C | 62% | 1015.8 hPa | - | - | - | - |
| 1777309655 | 26.67° C | 56% | 1015.9 hPa | - | - | - | - |
| 1777308755 | 28.33° C | 48% | 1015.9 hPa | - | - | - | - |
| 1777307855 | 30° C | 45% | 1016 hPa | - | - | - | - |
| 1777306955 | 29.44° C | 45% | 1016.1 hPa | - | - | - | - |
| 1777306054 | 30° C | 44% | 1016.2 hPa | - | - | - | - |
| 1777304266 | 31.11° C | 41% | 1016.3 hPa | - | - | - | - |
| 1777303366 | 31.11° C | 42% | 1016.3 hPa | - | - | - | - |
| 1777302453 | 31.11° C | 41% | 1016.3 hPa | - | - | - | - |
| 1777301553 | 31.11° C | 44% | 1016.3 hPa | - | - | - | - |
| 1777300652 | 30° C | 45% | 1016.4 hPa | - | - | - | - |
| 1777299752 | 29.44° C | 46% | 1016.5 hPa | - | - | - | - |
| 1777298852 | 29.44° C | 45% | 1016.6 hPa | - | - | - | - |
| 1777297952 | 29.44° C | 46% | 1016.8 hPa | - | - | - | - |
| 1777297051 | 28.89° C | 49% | 1016.9 hPa | - | - | - | - |
| 1777296151 | 28.33° C | 50% | 1017 hPa | - | - | - | - |
| 1777295251 | 27.78° C | 51% | 1017.1 hPa | - | - | - | - |
| 1777294350 | 27.78° C | 51% | 1017.3 hPa | - | - | - | - |
| 1777293450 | 26.67° C | 53% | 1017.3 hPa | - | - | - | - |
| 1777292550 | 27.22° C | 48% | 1017.4 hPa | - | - | - | - |
| 1777291650 | 25.56° C | 58% | 1017.6 hPa | - | - | - | - |
| 1777290749 | 25.56° C | 61% | 1017.7 hPa | - | - | - | - |
* Rain since midnight (hover to see other rain measurements)
** Current wind speed in m/s (hover to see current wind gust speed)